Time;durP1;ratioP1;P1;durP2;ratioP2;P2;SDS_P1;SDS_P2;PMS_P1;PMS_P2;Temp;Humidity;BMP_temperature;BMP_pressure;BME280_temperature;BME280_humidity;BME280_pressure;Samples;Min_cycle;Max_cycle;Signal;HPM_P1;HPM_P2
2023/09/21 00:00:13;;;;;;;0.90;0.90;;;;;;;;;;5115840;28;20219;-90
2023/09/21 00:02:44;;;;;;;1.10;1.10;;;;;;;;;;5116298;28;20244;-91
2023/09/21 00:05:13;;;;;;;1.55;1.45;;;;;;;;;;5116194;28;20636;-90
2023/09/21 00:07:40;;;;;;;1.60;1.50;;;;;;;;;;5115913;27;20278;-91
2023/09/21 00:10:12;;;;;;;0.90;0.90;;;;;;;;;;5115038;28;20220;-89
2023/09/21 00:12:40;;;;;;;1.20;1.10;;;;;;;;;;5115689;27;20279;-90
2023/09/21 00:15:12;;;;;;;1.00;1.00;;;;;;;;;;5115643;28;20579;-91
2023/09/21 00:17:40;;;;;;;1.42;1.33;;;;;;;;;;5115193;28;20291;-90
2023/09/21 00:20:17;;;;;;;1.05;1.05;;;;;;;;;;5114950;28;20243;-90
2023/09/21 00:22:45;;;;;;;1.27;1.08;;;;;;;;;;5115295;27;20321;-88
2023/09/21 00:25:14;;;;;;;1.45;1.35;;;;;;;;;;5115184;28;20202;-90
2023/09/21 00:27:42;;;;;;;1.42;1.33;;;;;;;;;;5115626;28;20632;-91
2023/09/21 00:30:10;;;;;;;1.20;1.10;;;;;;;;;;5115420;28;20262;-90
2023/09/21 00:32:39;;;;;;;1.83;1.20;;;;;;;;;;5124447;28;20219;-89
2023/09/21 00:35:09;;;;;;;1.25;1.15;;;;;;;;;;5138687;28;20214;-87
2023/09/21 00:37:38;;;;;;;1.40;1.30;;;;;;;;;;5138699;27;20192;-88
2023/09/21 00:40:23;;;;;;;1.33;1.23;;;;;;;;;;5136766;28;20211;-90
2023/09/21 00:42:52;;;;;;;1.30;1.20;;;;;;;;;;5115384;28;20222;-90
2023/09/21 00:45:21;;;;;;;1.38;1.27;;;;;;;;;;5114852;28;20574;-90
2023/09/21 00:47:51;;;;;;;1.77;1.23;;;;;;;;;;5114855;28;20570;-91
2023/09/21 00:50:24;;;;;;;1.98;1.77;;;;;;;;;;5114725;28;20210;-90
2023/09/21 00:52:54;;;;;;;1.50;1.40;;;;;;;;;;5114135;27;20724;-90
2023/09/21 00:55:30;;;;;;;1.45;1.35;;;;;;;;;;5114477;28;20200;-90
2023/09/21 00:58:01;;;;;;;1.40;1.30;;;;;;;;;;5114282;28;20211;-91
2023/09/21 01:00:30;;;;;;;1.13;1.10;;;;;;;;;;5115363;28;20290;-90
2023/09/21 01:03:07;;;;;;;1.20;1.20;;;;;;;;;;5118196;27;20690;-92
2023/09/21 01:05:36;;;;;;;1.65;1.45;;;;;;;;;;5118521;27;20574;-91
2023/09/21 01:08:10;;;;;;;1.23;1.13;;;;;;;;;;5118365;27;20207;-90
2023/09/21 01:10:41;;;;;;;1.58;1.48;;;;;;;;;;5118560;27;20648;-89
2023/09/21 01:13:11;;;;;;;1.80;1.45;;;;;;;;;;5118504;28;20225;-90
2023/09/21 01:15:40;;;;;;;1.50;1.40;;;;;;;;;;5118658;28;20196;-90
2023/09/21 01:18:08;;;;;;;0.98;0.98;;;;;;;;;;5117992;27;20583;-91
2023/09/21 01:20:37;;;;;;;1.85;1.15;;;;;;;;;;5118128;28;20199;-89
2023/09/21 01:23:10;;;;;;;1.45;1.35;;;;;;;;;;5127789;28;20665;-90
2023/09/21 01:25:41;;;;;;;1.38;1.23;;;;;;;;;;5118363;28;20210;-89
2023/09/21 01:28:10;;;;;;;1.33;0.90;;;;;;;;;;5117777;28;20302;-90
2023/09/21 01:30:38;;;;;;;1.55;1.45;;;;;;;;;;5117886;28;20204;-90
2023/09/21 01:33:11;;;;;;;1.00;1.00;;;;;;;;;;5117868;28;20288;-89
2023/09/21 01:35:38;;;;;;;1.20;1.10;;;;;;;;;;5118300;27;20199;-91
2023/09/21 01:38:07;;;;;;;1.13;1.13;;;;;;;;;;5117366;28;20260;-90
2023/09/21 01:40:35;;;;;;;1.20;1.13;;;;;;;;;;5118066;28;20571;-90
2023/09/21 01:43:07;;;;;;;0.82;0.82;;;;;;;;;;5118463;28;20203;-91
2023/09/21 01:45:35;;;;;;;1.10;1.10;;;;;;;;;;5118709;28;20200;-89
2023/09/21 01:48:08;;;;;;;1.55;1.45;;;;;;;;;;5124095;28;20225;-89
2023/09/21 01:50:42;;;;;;;1.02;1.02;;;;;;;;;;5123885;28;20204;-90
2023/09/21 01:53:11;;;;;;;1.00;1.00;;;;;;;;;;5118678;28;20224;-89
2023/09/21 01:55:39;;;;;;;0.70;0.70;;;;;;;;;;5118006;28;20292;-89
2023/09/21 01:58:10;;;;;;;1.13;1.13;;;;;;;;;;5117744;28;20203;-90
2023/09/21 02:00:40;;;;;;;1.00;1.00;;;;;;;;;;5117436;27;20547;-91
2023/09/21 02:03:12;;;;;;;0.98;0.98;;;;;;;;;;5118083;28;20291;-89
2023/09/21 02:05:39;;;;;;;1.25;1.15;;;;;;;;;;5117376;28;20204;-91
2023/09/21 02:08:09;;;;;;;1.20;1.10;;;;;;;;;;5117734;28;20203;-91
2023/09/21 02:10:38;;;;;;;1.00;0.95;;;;;;;;;;5117740;28;20676;-89
2023/09/21 02:13:08;;;;;;;1.75;1.05;;;;;;;;;;5117943;28;20605;-90
2023/09/21 02:15:38;;;;;;;0.88;0.88;;;;;;;;;;5117415;28;20256;-91
2023/09/21 02:18:07;;;;;;;1.40;1.30;;;;;;;;;;5117620;28;20641;-90
2023/09/21 02:20:38;;;;;;;1.33;1.23;;;;;;;;;;5117013;28;20572;-90
2023/09/21 02:23:06;;;;;;;2.00;1.60;;;;;;;;;;5117330;28;20210;-91
2023/09/21 02:25:38;;;;;;;1.30;1.20;;;;;;;;;;5117511;28;20200;-91
2023/09/21 02:28:11;;;;;;;1.45;1.35;;;;;;;;;;5124608;28;20204;-91
2023/09/21 02:30:40;;;;;;;1.50;1.40;;;;;;;;;;5117593;28;20195;-89
2023/09/21 02:33:09;;;;;;;1.48;1.38;;;;;;;;;;5117733;27;20208;-90
2023/09/21 02:35:41;;;;;;;2.30;1.17;;;;;;;;;;5117470;28;20215;-91
2023/09/21 02:38:09;;;;;;;1.50;1.40;;;;;;;;;;5117576;28;20580;-90
2023/09/21 02:40:38;;;;;;;1.33;1.23;;;;;;;;;;5123451;28;20204;-90
2023/09/21 02:43:09;;;;;;;1.25;1.15;;;;;;;;;;5127820;28;20200;-91
2023/09/21 02:45:37;;;;;;;1.58;1.48;;;;;;;;;;5118172;28;20180;-91
2023/09/21 02:48:06;;;;;;;1.60;1.50;;;;;;;;;;5116687;28;20199;-91
2023/09/21 02:50:34;;;;;;;1.75;1.30;;;;;;;;;;5117173;27;20203;-91
2023/09/21 02:53:07;;;;;;;1.42;1.33;;;;;;;;;;5117813;28;20210;-91
2023/09/21 02:55:37;;;;;;;1.30;1.20;;;;;;;;;;5116821;28;20261;-93
2023/09/21 02:58:10;;;;;;;1.38;1.27;;;;;;;;;;5116404;28;20305;-91
2023/09/21 03:00:42;;;;;;;1.20;1.13;;;;;;;;;;5116895;28;20278;-90
2023/09/21 03:03:12;;;;;;;1.60;1.50;;;;;;;;;;5116837;28;20199;-91
2023/09/21 03:05:40;;;;;;;1.70;1.58;;;;;;;;;;5116664;28;20657;-91
2023/09/21 03:08:13;;;;;;;1.55;1.42;;;;;;;;;;5116137;27;20582;-90
2023/09/21 03:10:41;;;;;;;1.40;1.30;;;;;;;;;;5116729;27;20204;-90
2023/09/21 03:13:17;;;;;;;0.95;0.95;;;;;;;;;;5116413;28;20260;-91
2023/09/21 03:15:45;;;;;;;1.05;1.05;;;;;;;;;;5116134;28;20231;-91
2023/09/21 03:18:13;;;;;;;1.00;1.00;;;;;;;;;;5115631;28;20203;-91
2023/09/21 03:20:40;;;;;;;1.30;1.20;;;;;;;;;;5115701;28;20354;-92
2023/09/21 03:23:10;;;;;;;1.00;1.00;;;;;;;;;;5115340;28;20196;-90
2023/09/21 03:25:41;;;;;;;1.40;1.30;;;;;;;;;;5116183;28;20687;-91
2023/09/21 03:28:13;;;;;;;1.23;1.20;;;;;;;;;;5119331;28;20192;-88
2023/09/21 03:30:40;;;;;;;1.35;1.25;;;;;;;;;;5120783;28;20203;-91
2023/09/21 03:33:08;;;;;;;1.35;1.25;;;;;;;;;;5116775;28;20633;-91
2023/09/21 03:35:37;;;;;;;1.98;1.23;;;;;;;;;;5123846;28;20712;-90
2023/09/21 03:38:06;;;;;;;1.80;1.10;;;;;;;;;;5115471;28;20207;-90
2023/09/21 03:40:33;;;;;;;1.60;1.50;;;;;;;;;;5115981;28;20195;-91
2023/09/21 03:43:02;;;;;;;1.60;1.50;;;;;;;;;;5115520;28;20199;-91
2023/09/21 03:45:31;;;;;;;1.25;1.15;;;;;;;;;;5115637;28;20200;-90
2023/09/21 03:48:04;;;;;;;1.20;1.10;;;;;;;;;;5115715;28;20208;-91
2023/09/21 03:50:32;;;;;;;1.33;1.23;;;;;;;;;;5115505;28;20218;-91
2023/09/21 03:53:00;;;;;;;1.50;1.17;;;;;;;;;;5115588;28;20200;-91
2023/09/21 03:55:29;;;;;;;1.83;1.20;;;;;;;;;;5115212;28;20216;-90
2023/09/21 03:57:56;;;;;;;1.30;1.20;;;;;;;;;;5106873;27;20204;-89
2023/09/21 04:00:29;;;;;;;1.50;1.40;;;;;;;;;;5101291;28;20579;-89
2023/09/21 04:02:59;;;;;;;1.50;1.40;;;;;;;;;;5101366;28;20256;-89
2023/09/21 04:05:31;;;;;;;1.52;1.42;;;;;;;;;;5101287;28;20260;-90
2023/09/21 04:08:00;;;;;;;1.20;1.20;;;;;;;;;;5100843;28;20288;-90
2023/09/21 04:10:27;;;;;;;1.50;1.40;;;;;;;;;;5101964;28;20199;-90
2023/09/21 04:12:56;;;;;;;1.30;1.20;;;;;;;;;;5105826;28;20200;-87
2023/09/21 04:15:24;;;;;;;1.65;1.52;;;;;;;;;;5107913;28;20215;-88
2023/09/21 04:17:53;;;;;;;2.17;1.85;;;;;;;;;;5101508;28;20264;-89
2023/09/21 04:20:23;;;;;;;1.10;1.10;;;;;;;;;;5100557;28;20853;-89
2023/09/21 04:22:53;;;;;;;1.23;1.17;;;;;;;;;;5101875;28;20200;-89
2023/09/21 04:25:22;;;;;;;1.92;1.35;;;;;;;;;;5102869;28;20203;-88
2023/09/21 04:27:53;;;;;;;1.02;1.02;;;;;;;;;;5102874;28;20842;-90
2023/09/21 04:30:22;;;;;;;1.70;1.60;;;;;;;;;;5103242;28;20199;-89
2023/09/21 04:32:50;;;;;;;1.35;1.25;;;;;;;;;;5102057;28;20204;-90
2023/09/21 04:35:19;;;;;;;1.30;1.20;;;;;;;;;;5101640;28;20315;-89
2023/09/21 04:37:52;;;;;;;1.30;1.20;;;;;;;;;;5102438;28;20272;-89
2023/09/21 04:40:19;;;;;;;1.30;1.20;;;;;;;;;;5102521;28;20200;-89
2023/09/21 04:42:48;;;;;;;1.98;1.70;;;;;;;;;;5101570;28;20195;-89
2023/09/21 04:45:18;;;;;;;1.35;1.25;;;;;;;;;;5104694;28;20218;-89
2023/09/21 04:47:49;;;;;;;1.10;1.10;;;;;;;;;;5100683;28;20204;-90
2023/09/21 04:50:18;;;;;;;1.30;1.20;;;;;;;;;;5102529;28;20231;-89
2023/09/21 04:52:48;;;;;;;2.13;1.25;;;;;;;;;;5103077;28;20196;-88
2023/09/21 04:55:17;;;;;;;1.30;1.20;;;;;;;;;;5103581;28;20223;-89
2023/09/21 04:57:44;;;;;;;1.13;1.02;;;;;;;;;;5103143;28;20206;-90
2023/09/21 05:00:15;;;;;;;1.23;1.13;;;;;;;;;;5102545;28;20223;-88
2023/09/21 05:02:43;;;;;;;1.42;1.33;;;;;;;;;;5110290;28;20229;-88
2023/09/21 05:05:13;;;;;;;2.67;1.50;;;;;;;;;;5119118;28;20267;-90
2023/09/21 05:07:40;;;;;;;1.63;1.52;;;;;;;;;;5105116;28;20910;-92
2023/09/21 05:10:12;;;;;;;1.70;1.60;;;;;;;;;;5109237;28;20803;-88
2023/09/21 05:12:40;;;;;;;1.60;1.40;;;;;;;;;;5104359;28;20199;-90
2023/09/21 05:15:11;;;;;;;2.40;1.38;;;;;;;;;;5115137;28;20203;-88
2023/09/21 05:17:38;;;;;;;2.15;1.40;;;;;;;;;;5127061;28;20199;-87
2023/09/21 05:20:09;;;;;;;1.58;1.48;;;;;;;;;;5128561;28;20246;-88
2023/09/21 05:22:39;;;;;;;2.33;1.60;;;;;;;;;;5128257;28;20198;-88
2023/09/21 05:25:09;;;;;;;1.60;1.50;;;;;;;;;;5111427;28;20580;-91
2023/09/21 05:27:37;;;;;;;1.50;1.33;;;;;;;;;;5102442;28;20199;-90
2023/09/21 05:30:09;;;;;;;1.40;1.30;;;;;;;;;;5102453;28;20226;-90
2023/09/21 05:32:37;;;;;;;1.70;1.38;;;;;;;;;;5102782;28;20211;-92
2023/09/21 05:35:05;;;;;;;2.03;1.33;;;;;;;;;;5107505;28;20218;-88
2023/09/21 05:37:32;;;;;;;1.15;1.05;;;;;;;;;;5101762;28;20319;-90
2023/09/21 05:40:00;;;;;;;0.93;0.93;;;;;;;;;;5100893;28;21340;-91
2023/09/21 05:42:29;;;;;;;1.00;1.00;;;;;;;;;;5100917;28;20207;-90
2023/09/21 05:44:57;;;;;;;1.92;1.40;;;;;;;;;;5101125;28;20260;-90
2023/09/21 05:47:26;;;;;;;1.40;1.30;;;;;;;;;;5103708;28;20199;-90
2023/09/21 05:49:54;;;;;;;1.30;1.20;;;;;;;;;;5105824;28;20632;-89
2023/09/21 05:52:22;;;;;;;1.50;1.40;;;;;;;;;;5105787;28;20211;-89
2023/09/21 05:54:49;;;;;;;1.38;1.27;;;;;;;;;;5106072;28;20199;-91
2023/09/21 05:57:17;;;;;;;1.67;1.58;;;;;;;;;;5105346;28;20228;-90
2023/09/21 05:59:46;;;;;;;1.10;1.10;;;;;;;;;;5116310;28;20251;-90
2023/09/21 06:02:15;;;;;;;2.00;1.38;;;;;;;;;;5118211;28;20272;-91
2023/09/21 06:04:42;;;;;;;2.65;1.10;;;;;;;;;;5118410;27;20215;-90
2023/09/21 06:07:10;;;;;;;2.65;1.40;;;;;;;;;;5117823;28;20199;-90
2023/09/21 06:09:37;;;;;;;1.50;1.40;;;;;;;;;;5118258;28;20230;-91
2023/09/21 06:12:07;;;;;;;1.55;1.40;;;;;;;;;;5117680;28;20687;-90
2023/09/21 06:14:36;;;;;;;1.65;1.55;;;;;;;;;;5115865;28;20246;-92
2023/09/21 06:17:06;;;;;;;1.60;1.42;;;;;;;;;;5109870;28;20231;-92
2023/09/21 06:19:35;;;;;;;2.78;1.83;;;;;;;;;;5117204;28;20223;-92
2023/09/21 06:22:02;;;;;;;1.50;1.40;;;;;;;;;;5097671;28;20585;-91
2023/09/21 06:24:31;;;;;;;1.83;1.67;;;;;;;;;;5097404;28;20227;-91
2023/09/21 06:26:58;;;;;;;1.77;1.60;;;;;;;;;;5098048;28;20211;-91
2023/09/21 06:29:26;;;;;;;2.03;1.20;;;;;;;;;;5097306;28;20667;-92
2023/09/21 06:31:54;;;;;;;1.27;1.17;;;;;;;;;;5097762;28;20200;-91
2023/09/21 06:34:24;;;;;;;2.40;2.20;;;;;;;;;;5097545;28;20430;-92
2023/09/21 06:36:52;;;;;;;1.60;1.50;;;;;;;;;;5097023;28;20654;-92
2023/09/21 06:39:21;;;;;;;1.50;1.40;;;;;;;;;;5097199;28;20251;-92
2023/09/21 06:41:48;;;;;;;1.60;1.50;;;;;;;;;;5097068;28;20196;-90
2023/09/21 06:44:18;;;;;;;1.55;1.42;;;;;;;;;;5097380;28;20295;-91
2023/09/21 06:46:45;;;;;;;1.55;1.45;;;;;;;;;;5116174;28;20302;-92
2023/09/21 06:49:13;;;;;;;1.48;1.38;;;;;;;;;;5117095;28;20238;-91
2023/09/21 06:51:42;;;;;;;1.58;1.48;;;;;;;;;;5117144;28;20302;-90
2023/09/21 06:54:10;;;;;;;1.48;1.38;;;;;;;;;;5117326;28;20282;-90
2023/09/21 06:56:37;;;;;;;1.42;1.33;;;;;;;;;;5116958;28;20314;-91
2023/09/21 06:59:06;;;;;;;1.50;1.40;;;;;;;;;;5115880;28;20303;-90
2023/09/21 07:01:34;;;;;;;1.48;1.38;;;;;;;;;;5117160;28;20543;-92
2023/09/21 07:04:03;;;;;;;2.20;1.63;;;;;;;;;;5116923;28;20210;-91
2023/09/21 07:06:30;;;;;;;2.13;1.58;;;;;;;;;;5117149;28;20583;-91
2023/09/21 07:09:00;;;;;;;1.58;1.48;;;;;;;;;;5116785;28;20212;-93
2023/09/21 07:11:28;;;;;;;1.38;1.27;;;;;;;;;;5117806;28;20237;-91
2023/09/21 07:13:55;;;;;;;1.60;1.50;;;;;;;;;;5116835;28;20291;-91
2023/09/21 07:16:23;;;;;;;4.13;1.98;;;;;;;;;;5116558;28;20230;-91
2023/09/21 07:18:51;;;;;;;1.60;1.50;;;;;;;;;;5116878;27;20237;-92
2023/09/21 07:21:18;;;;;;;1.92;1.30;;;;;;;;;;5116720;28;20259;-92
2023/09/21 07:23:46;;;;;;;1.50;1.40;;;;;;;;;;5116465;28;20234;-92
2023/09/21 07:26:15;;;;;;;1.80;1.70;;;;;;;;;;5116356;28;20250;-91
2023/09/21 07:28:43;;;;;;;2.25;1.50;;;;;;;;;;5116339;28;20218;-92
2023/09/21 07:31:10;;;;;;;1.70;1.60;;;;;;;;;;5116500;28;20748;-92
2023/09/21 07:33:38;;;;;;;1.40;1.30;;;;;;;;;;5116459;28;20255;-91
2023/09/21 07:36:06;;;;;;;1.88;1.77;;;;;;;;;;5116897;28;20286;-90
2023/09/21 07:38:34;;;;;;;1.38;1.20;;;;;;;;;;5116157;28;20227;-91
2023/09/21 07:41:03;;;;;;;1.70;1.60;;;;;;;;;;5117413;28;20227;-91
2023/09/21 07:43:32;;;;;;;2.25;1.95;;;;;;;;;;5117291;28;20207;-91
2023/09/21 07:45:59;;;;;;;1.60;1.40;;;;;;;;;;5116438;28;20282;-90
2023/09/21 07:48:27;;;;;;;1.65;1.30;;;;;;;;;;5116253;28;20230;-91
2023/09/21 07:50:56;;;;;;;1.85;1.75;;;;;;;;;;5116540;28;20628;-92
2023/09/21 07:53:27;;;;;;;1.50;1.40;;;;;;;;;;5116230;28;20253;-90
2023/09/21 07:56:02;;;;;;;1.60;1.50;;;;;;;;;;5116487;28;20196;-92
2023/09/21 07:58:32;;;;;;;1.50;1.40;;;;;;;;;;5115476;28;20233;-91
2023/09/21 08:01:00;;;;;;;1.40;1.30;;;;;;;;;;5115895;27;20282;-91
2023/09/21 08:03:28;;;;;;;1.67;1.58;;;;;;;;;;5116152;28;20192;-90
2023/09/21 08:05:56;;;;;;;1.65;1.55;;;;;;;;;;5115845;28;20737;-92
2023/09/21 08:08:24;;;;;;;2.15;1.70;;;;;;;;;;5115353;28;20219;-92
2023/09/21 08:10:53;;;;;;;1.40;1.30;;;;;;;;;;5116277;28;20202;-90
2023/09/21 08:13:22;;;;;;;2.47;1.70;;;;;;;;;;5115512;28;20226;-91
2023/09/21 08:15:52;;;;;;;1.95;1.50;;;;;;;;;;5115888;28;20449;-91
2023/09/21 08:18:19;;;;;;;1.40;1.30;;;;;;;;;;5115489;28;20313;-89
2023/09/21 08:20:47;;;;;;;1.38;1.27;;;;;;;;;;5115889;28;20234;-92
2023/09/21 08:23:17;;;;;;;1.58;1.48;;;;;;;;;;5116037;28;20744;-91
2023/09/21 08:25:44;;;;;;;1.52;1.40;;;;;;;;;;5115923;28;20196;-90
2023/09/21 08:28:12;;;;;;;2.63;2.22;;;;;;;;;;5116754;28;20282;-91
2023/09/21 08:30:39;;;;;;;1.88;1.77;;;;;;;;;;5117684;28;20195;-91
2023/09/21 08:33:10;;;;;;;2.55;2.15;;;;;;;;;;5118302;28;20203;-92
2023/09/21 08:35:37;;;;;;;1.85;1.63;;;;;;;;;;5117636;28;20227;-92
2023/09/21 08:38:05;;;;;;;1.60;1.50;;;;;;;;;;5117321;28;20241;-93
2023/09/21 08:40:35;;;;;;;2.22;1.60;;;;;;;;;;5116197;28;20287;-91
2023/09/21 08:43:05;;;;;;;1.45;1.35;;;;;;;;;;5116433;28;20222;-91
2023/09/21 08:45:33;;;;;;;2.13;1.90;;;;;;;;;;5116238;28;20632;-91
2023/09/21 08:48:02;;;;;;;1.80;1.70;;;;;;;;;;5114935;27;20199;-92
2023/09/21 08:50:32;;;;;;;1.38;1.27;;;;;;;;;;5116166;27;20259;-92
2023/09/21 08:53:00;;;;;;;1.50;1.40;;;;;;;;;;5115523;27;20210;-92
2023/09/21 08:55:27;;;;;;;1.90;1.70;;;;;;;;;;5115662;28;20208;-94
2023/09/21 08:57:56;;;;;;;2.22;1.67;;;;;;;;;;5124252;28;20251;-92
2023/09/21 09:00:29;;;;;;;2.75;1.50;;;;;;;;;;5115710;28;20199;-92
2023/09/21 09:02:56;;;;;;;6.18;2.10;;;;;;;;;;5115469;28;20563;-91
2023/09/21 09:05:24;;;;;;;1.52;1.35;;;;;;;;;;5116686;27;20267;-94
2023/09/21 09:07:53;;;;;;;1.85;1.75;;;;;;;;;;5130027;27;20203;-92
2023/09/21 09:10:21;;;;;;;2.08;1.58;;;;;;;;;;5119758;28;20216;-92
2023/09/21 09:12:49;;;;;;;1.60;1.50;;;;;;;;;;5109417;28;20271;-92
2023/09/21 09:15:17;;;;;;;1.30;1.20;;;;;;;;;;5107561;28;20217;-93
2023/09/21 09:17:45;;;;;;;1.50;1.40;;;;;;;;;;5126458;28;20302;-92
2023/09/21 09:20:16;;;;;;;1.80;1.70;;;;;;;;;;5113208;28;20217;-92
2023/09/21 09:22:44;;;;;;;1.52;1.40;;;;;;;;;;5116760;28;20610;-92
2023/09/21 09:25:13;;;;;;;1.85;1.40;;;;;;;;;;5123993;28;20220;-93
2023/09/21 09:27:43;;;;;;;1.35;1.25;;;;;;;;;;5121487;28;20263;-93
2023/09/21 09:30:13;;;;;;;1.30;1.20;;;;;;;;;;5120003;28;20211;-91
2023/09/21 09:32:41;;;;;;;1.45;1.35;;;;;;;;;;5118333;28;20579;-92
2023/09/21 09:35:12;;;;;;;1.63;1.52;;;;;;;;;;5118213;27;20215;-91
2023/09/21 09:37:40;;;;;;;1.50;1.13;;;;;;;;;;5117895;28;20192;-92
2023/09/21 09:40:13;;;;;;;1.48;1.38;;;;;;;;;;5117823;28;20215;-89
2023/09/21 09:42:42;;;;;;;1.30;1.20;;;;;;;;;;5127303;28;20215;-92
2023/09/21 09:45:16;;;;;;;1.50;1.40;;;;;;;;;;5119539;28;20585;-92
2023/09/21 09:47:46;;;;;;;1.63;1.50;;;;;;;;;;5117584;28;20204;-92
2023/09/21 09:50:17;;;;;;;1.50;1.40;;;;;;;;;;5118291;27;20239;-91
2023/09/21 09:52:52;;;;;;;1.55;1.45;;;;;;;;;;5119357;28;20245;-91
2023/09/21 09:55:25;;;;;;;1.50;1.40;;;;;;;;;;5118788;28;20230;-92
2023/09/21 09:57:54;;;;;;;2.35;1.40;;;;;;;;;;5118123;28;20195;-91
2023/09/21 10:00:22;;;;;;;1.45;1.35;;;;;;;;;;5138606;28;20196;-89
2023/09/21 10:02:51;;;;;;;1.80;1.63;;;;;;;;;;5141714;28;20178;-89
2023/09/21 10:05:21;;;;;;;1.25;1.20;;;;;;;;;;5141631;28;20217;-88
2023/09/21 10:07:51;;;;;;;1.80;1.70;;;;;;;;;;5133803;28;20223;-92
2023/09/21 10:10:21;;;;;;;1.30;1.20;;;;;;;;;;5125924;28;20228;-92
2023/09/21 10:12:51;;;;;;;1.75;1.65;;;;;;;;;;5118294;28;20307;-91
2023/09/21 10:15:22;;;;;;;1.70;1.50;;;;;;;;;;5118345;28;20282;-91
2023/09/21 10:17:50;;;;;;;1.77;1.67;;;;;;;;;;5118526;27;20221;-91
2023/09/21 10:20:27;;;;;;;1.30;1.20;;;;;;;;;;5117555;28;20227;-91
2023/09/21 10:22:56;;;;;;;1.30;1.20;;;;;;;;;;5117075;28;20279;-91
2023/09/21 10:25:42;;;;;;;1.50;1.40;;;;;;;;;;5117679;28;20223;-90
2023/09/21 10:28:40;;;;;;;1.42;1.20;;;;;;;;;;5116471;28;20207;-90
2023/09/21 10:31:24;;;;;;;1.50;1.40;;;;;;;;;;5054136;28;20285;-90
2023/09/21 10:34:13;;;;;;;1.48;1.38;;;;;;;;;;5110268;28;20680;-91
2023/09/21 10:36:50;;;;;;;1.10;1.10;;;;;;;;;;5117699;28;20191;-90
2023/09/21 10:39:28;;;;;;;1.50;1.40;;;;;;;;;;5117053;28;20309;-91
2023/09/21 10:42:25;;;;;;;1.35;1.30;;;;;;;;;;5117554;28;20207;-93
2023/09/21 10:44:59;;;;;;;1.90;1.80;;;;;;;;;;5116704;28;20295;-91
2023/09/21 10:47:29;;;;;;;1.25;1.15;;;;;;;;;;5116791;28;20203;-91
2023/09/21 10:50:02;;;;;;;2.05;1.33;;;;;;;;;;5116819;28;20207;-92
2023/09/21 10:52:31;;;;;;;3.83;2.40;;;;;;;;;;5116854;28;20191;-90
2023/09/21 10:54:58;;;;;;;1.52;1.42;;;;;;;;;;5116909;28;20590;-92
2023/09/21 10:57:29;;;;;;;2.60;1.50;;;;;;;;;;5116931;27;20630;-91
2023/09/21 10:59:59;;;;;;;1.95;1.40;;;;;;;;;;5116353;28;20223;-91
2023/09/21 11:02:31;;;;;;;2.28;2.08;;;;;;;;;;5116762;27;20613;-91
2023/09/21 11:05:00;;;;;;;1.15;1.10;;;;;;;;;;5117236;28;20299;-91
2023/09/21 11:07:29;;;;;;;2.17;1.42;;;;;;;;;;5117188;27;20642;-91
2023/09/21 11:09:57;;;;;;;1.10;1.10;;;;;;;;;;5116460;28;20215;-91
2023/09/21 11:12:26;;;;;;;1.80;1.20;;;;;;;;;;5116098;27;20200;-91
2023/09/21 11:14:54;;;;;;;1.60;1.50;;;;;;;;;;5116641;28;20296;-90
2023/09/21 11:17:22;;;;;;;1.85;1.23;;;;;;;;;;5116272;28;20200;-90
2023/09/21 11:19:49;;;;;;;1.75;1.48;;;;;;;;;;5116012;28;20223;-91
2023/09/21 11:22:17;;;;;;;1.50;1.40;;;;;;;;;;5116148;27;20733;-91
2023/09/21 11:24:46;;;;;;;1.30;1.20;;;;;;;;;;5121376;27;20206;-92
2023/09/21 11:27:15;;;;;;;1.45;1.35;;;;;;;;;;5125763;27;20195;-92
2023/09/21 11:29:44;;;;;;;1.52;1.42;;;;;;;;;;5123413;28;20219;-92
2023/09/21 11:32:17;;;;;;;1.02;1.00;;;;;;;;;;5120240;27;20282;-93
2023/09/21 11:34:47;;;;;;;1.50;1.40;;;;;;;;;;5117330;28;20720;-93
2023/09/21 11:37:15;;;;;;;1.80;1.55;;;;;;;;;;5117305;28;20203;-93
2023/09/21 11:39:46;;;;;;;1.90;1.60;;;;;;;;;;5116786;28;20234;-93
2023/09/21 11:42:15;;;;;;;2.00;1.40;;;;;;;;;;5115890;27;20218;-93
2023/09/21 11:44:45;;;;;;;1.50;1.30;;;;;;;;;;5114800;28;20508;-91
2023/09/21 11:47:13;;;;;;;1.30;1.20;;;;;;;;;;5115662;28;20214;-90
2023/09/21 11:49:42;;;;;;;1.48;1.20;;;;;;;;;;5115055;28;20227;-92
2023/09/21 11:52:13;;;;;;;1.23;1.13;;;;;;;;;;5115055;28;20191;-92
2023/09/21 11:54:41;;;;;;;1.40;1.30;;;;;;;;;;5115985;28;20261;-92
2023/09/21 11:57:11;;;;;;;1.17;1.10;;;;;;;;;;5115630;28;20279;-91
2023/09/21 11:59:42;;;;;;;1.23;1.17;;;;;;;;;;5114690;28;20314;-91
2023/09/21 12:02:16;;;;;;;1.25;1.10;;;;;;;;;;5115586;28;20203;-91
2023/09/21 12:04:44;;;;;;;3.03;1.38;;;;;;;;;;5115006;28;20691;-92
2023/09/21 12:07:14;;;;;;;1.02;1.02;;;;;;;;;;5115350;28;20290;-92
2023/09/21 12:09:41;;;;;;;1.00;1.00;;;;;;;;;;5114475;28;20219;-92
2023/09/21 12:12:12;;;;;;;1.42;1.33;;;;;;;;;;5115360;28;20196;-91
2023/09/21 12:14:42;;;;;;;2.22;1.30;;;;;;;;;;5114665;28;20752;-92
2023/09/21 12:17:12;;;;;;;1.55;1.20;;;;;;;;;;5107037;28;20206;-91
2023/09/21 12:19:40;;;;;;;1.42;1.33;;;;;;;;;;5114837;27;20227;-92
2023/09/21 12:22:08;;;;;;;1.35;1.25;;;;;;;;;;5115072;28;20260;-92
2023/09/21 12:24:36;;;;;;;1.30;1.20;;;;;;;;;;5115197;28;20192;-91
2023/09/21 12:27:06;;;;;;;1.52;1.42;;;;;;;;;;5114872;28;20291;-91
2023/09/21 12:29:34;;;;;;;1.40;1.30;;;;;;;;;;5115149;27;20251;-91
2023/09/21 12:32:04;;;;;;;1.63;1.52;;;;;;;;;;5114927;27;20230;-92
2023/09/21 12:34:34;;;;;;;1.10;1.10;;;;;;;;;;5114693;28;20207;-91
2023/09/21 12:37:02;;;;;;;1.23;1.13;;;;;;;;;;5115089;28;20295;-91
2023/09/21 12:39:30;;;;;;;1.25;1.25;;;;;;;;;;5114417;27;20215;-91
2023/09/21 12:41:59;;;;;;;1.65;1.52;;;;;;;;;;5115337;28;20264;-91
2023/09/21 12:44:26;;;;;;;1.85;1.40;;;;;;;;;;5114262;28;20665;-92
2023/09/21 12:46:54;;;;;;;2.28;1.48;;;;;;;;;;5114465;28;20290;-92
2023/09/21 12:49:22;;;;;;;2.00;1.80;;;;;;;;;;5117794;28;20219;-93
2023/09/21 12:51:51;;;;;;;1.10;1.10;;;;;;;;;;5117426;28;20207;-92
2023/09/21 12:54:19;;;;;;;2.05;1.45;;;;;;;;;;5114484;28;20196;-92
2023/09/21 12:56:47;;;;;;;1.30;1.20;;;;;;;;;;5115876;28;20231;-92
2023/09/21 12:59:14;;;;;;;1.35;1.25;;;;;;;;;;5116965;28;20295;-92
2023/09/21 13:01:42;;;;;;;1.35;1.20;;;;;;;;;;5116491;28;20223;-92
2023/09/21 13:04:09;;;;;;;1.25;1.20;;;;;;;;;;5114049;28;20199;-90
2023/09/21 13:06:38;;;;;;;1.63;1.52;;;;;;;;;;5114650;28;20196;-92
2023/09/21 13:09:07;;;;;;;2.88;1.40;;;;;;;;;;5114371;28;20211;-90
2023/09/21 13:11:34;;;;;;;1.63;1.45;;;;;;;;;;5115053;28;20671;-91
2023/09/21 13:14:03;;;;;;;1.65;1.55;;;;;;;;;;5114217;28;20279;-91
2023/09/21 13:16:32;;;;;;;1.42;1.33;;;;;;;;;;5115539;28;20207;-92
2023/09/21 13:19:00;;;;;;;1.30;1.20;;;;;;;;;;5114751;28;20276;-90
2023/09/21 13:21:27;;;;;;;1.50;1.40;;;;;;;;;;5114396;28;20315;-91
2023/09/21 13:23:55;;;;;;;1.77;1.40;;;;;;;;;;5113472;28;20290;-92
2023/09/21 13:26:24;;;;;;;3.10;1.98;;;;;;;;;;5114732;28;20282;-91
2023/09/21 13:28:51;;;;;;;2.03;1.50;;;;;;;;;;5114963;28;20302;-90
2023/09/21 13:31:22;;;;;;;2.78;1.80;;;;;;;;;;5114666;28;20577;-92
2023/09/21 13:33:51;;;;;;;1.50;1.40;;;;;;;;;;5114125;28;20282;-91
2023/09/21 13:36:18;;;;;;;1.20;1.10;;;;;;;;;;5114154;28;20257;-91
2023/09/21 13:38:51;;;;;;;4.85;1.67;;;;;;;;;;5113824;28;20231;-91
2023/09/21 13:41:19;;;;;;;1.30;1.20;;;;;;;;;;5114390;28;20306;-91
2023/09/21 13:43:48;;;;;;;1.80;1.40;;;;;;;;;;5114243;28;20283;-92
2023/09/21 13:46:16;;;;;;;1.17;1.17;;;;;;;;;;5114036;28;20284;-91
2023/09/21 13:48:44;;;;;;;1.02;1.02;;;;;;;;;;5113153;28;20238;-91
2023/09/21 13:51:12;;;;;;;1.08;1.08;;;;;;;;;;5114101;28;20204;-90
2023/09/21 13:53:39;;;;;;;2.13;1.38;;;;;;;;;;5114185;28;20223;-91
2023/09/21 13:56:07;;;;;;;0.98;0.98;;;;;;;;;;5114114;28;20220;-91
2023/09/21 13:58:35;;;;;;;1.70;1.35;;;;;;;;;;5114274;28;20245;-90
2023/09/21 14:01:03;;;;;;;1.63;1.45;;;;;;;;;;5113815;28;20219;-90
2023/09/21 14:03:32;;;;;;;1.30;1.20;;;;;;;;;;5113703;28;20661;-93
2023/09/21 14:06:00;;;;;;;2.40;1.50;;;;;;;;;;5124477;28;20218;-91
2023/09/21 14:08:27;;;;;;;1.13;1.02;;;;;;;;;;5116351;28;20224;-92
2023/09/21 14:10:55;;;;;;;1.73;1.45;;;;;;;;;;5117972;28;20286;-91
2023/09/21 14:13:23;;;;;;;1.50;1.40;;;;;;;;;;5117308;28;20248;-92
2023/09/21 14:15:50;;;;;;;2.35;2.15;;;;;;;;;;5117226;28;20231;-92
2023/09/21 14:18:19;;;;;;;1.60;1.50;;;;;;;;;;5117362;28;20760;-92
2023/09/21 14:20:47;;;;;;;2.10;1.90;;;;;;;;;;5117009;28;20722;-91
2023/09/21 14:23:14;;;;;;;1.42;1.33;;;;;;;;;;5117127;28;20199;-91
2023/09/21 14:25:42;;;;;;;1.40;1.30;;;;;;;;;;5118620;28;20283;-92
2023/09/21 14:28:09;;;;;;;2.28;1.40;;;;;;;;;;5126574;28;20258;-91
2023/09/21 14:30:37;;;;;;;1.50;1.35;;;;;;;;;;5117180;28;20195;-91
2023/09/21 14:33:06;;;;;;;2.00;1.40;;;;;;;;;;5116649;28;20203;-91
2023/09/21 14:35:35;;;;;;;1.30;1.20;;;;;;;;;;5117889;28;20203;-91
2023/09/21 14:38:04;;;;;;;1.20;1.13;;;;;;;;;;5116604;28;20278;-91
2023/09/21 14:40:32;;;;;;;2.30;1.85;;;;;;;;;;5121361;28;20194;-89
2023/09/21 14:43:00;;;;;;;2.15;1.95;;;;;;;;;;5139444;28;20191;-90
2023/09/21 14:45:27;;;;;;;1.15;1.15;;;;;;;;;;5139817;28;20231;-89
2023/09/21 14:47:55;;;;;;;1.85;1.65;;;;;;;;;;5139611;28;20196;-89
2023/09/21 14:50:22;;;;;;;1.55;1.45;;;;;;;;;;5125689;28;20295;-91
2023/09/21 14:52:52;;;;;;;1.00;1.00;;;;;;;;;;5117380;28;20283;-91
2023/09/21 14:55:20;;;;;;;2.70;1.60;;;;;;;;;;5118931;28;20196;-92